createdAt,value
2022-10-01T00:01:17.634Z,6.93
2022-10-01T00:03:45.506Z,7.35
2022-10-01T00:06:20.552Z,5.45
2022-10-01T00:11:23.274Z,5.37
2022-10-01T00:13:51.934Z,4.23
2022-10-01T00:16:24.451Z,3.08
2022-10-01T00:18:55.443Z,6.12
2022-10-01T00:21:25.232Z,5.53
2022-10-01T00:23:58.318Z,4.37
2022-10-01T00:26:28.379Z,5.82
2022-10-01T00:28:58.464Z,4.93
2022-10-01T00:31:26.596Z,4.80
2022-10-01T00:33:55.176Z,5.95
2022-10-01T00:36:22.894Z,6.32
2022-10-01T00:38:50.386Z,7.95
2022-10-01T00:41:18.802Z,5.53
2022-10-01T00:43:50.497Z,8.73
2022-10-01T00:46:31.521Z,7.50
2022-10-01T00:49:09.458Z,6.30
2022-10-01T00:51:42.685Z,6.12
2022-10-01T00:54:14.480Z,5.47
2022-10-01T00:56:43.589Z,4.30
2022-10-01T00:59:12.008Z,5.43
2022-10-01T01:01:39.568Z,5.68
2022-10-01T01:04:16.481Z,4.85
2022-10-01T01:06:57.691Z,5.80
2022-10-01T01:09:31.638Z,7.75
2022-10-01T01:12:02.587Z,5.12
2022-10-01T01:14:44.381Z,5.62
2022-10-01T01:17:15.447Z,7.05
2022-10-01T01:20:04.941Z,6.35
2022-10-01T01:22:34.750Z,5.10
2022-10-01T01:25:14.513Z,5.90
2022-10-01T01:27:48.646Z,5.87
2022-10-01T01:30:17.127Z,4.18
2022-10-01T01:32:46.816Z,5.28
2022-10-01T01:35:22.171Z,5.12
2022-10-01T01:37:57.361Z,5.57
2022-10-01T01:40:25.792Z,4.65
2022-10-01T01:42:54.518Z,5.93
2022-10-01T01:45:26.290Z,6.60
2022-10-01T01:47:56.102Z,7.93
2022-10-01T01:50:25.559Z,6.22
2022-10-01T01:52:56.327Z,7.75
2022-10-01T01:55:24.837Z,7.22
2022-10-01T01:57:53.255Z,8.25
2022-10-01T02:00:22.467Z,4.53
2022-10-01T02:02:53.047Z,4.62
2022-10-01T02:05:26.300Z,7.50
2022-10-01T02:08:24.226Z,7.85
2022-10-01T02:11:18.970Z,5.90
2022-10-01T02:14:03.269Z,5.43
2022-10-01T02:16:35.511Z,5.80
2022-10-01T02:19:33.476Z,5.53
2022-10-01T02:22:07.270Z,5.43
2022-10-01T02:24:57.812Z,6.15
2022-10-01T02:27:46.683Z,5.35
2022-10-01T02:30:15.367Z,6.20
2022-10-01T02:32:44.477Z,9.13
2022-10-01T02:35:15.327Z,8.57
2022-10-01T02:37:44.809Z,5.97
2022-10-01T02:40:15.955Z,6.18
2022-10-01T02:42:50.216Z,5.80
2022-10-01T02:45:22.805Z,7.45
2022-10-01T02:47:55.178Z,8.43
2022-10-01T02:50:24.623Z,7.00
2022-10-01T02:53:42.338Z,6.05
2022-10-01T02:56:10.500Z,8.02
2022-10-01T02:58:38.217Z,4.30
2022-10-01T03:01:06.219Z,6.62
2022-10-01T03:03:33.722Z,6.22
2022-10-01T03:06:01.455Z,5.65
2022-10-01T03:08:29.424Z,8.10
2022-10-01T03:10:56.870Z,6.35
2022-10-01T03:13:25.253Z,7.53
2022-10-01T03:15:52.866Z,7.70
2022-10-01T03:18:20.655Z,10.98
2022-10-01T03:20:48.371Z,8.75
2022-10-01T03:23:15.854Z,9.77
2022-10-01T03:25:43.248Z,8.75
2022-10-01T03:28:11.018Z,7.95
2022-10-01T03:30:38.901Z,9.20
2022-10-01T03:33:06.315Z,8.13
2022-10-01T03:35:34.027Z,5.12
2022-10-01T03:38:02.851Z,6.15
2022-10-01T03:40:33.219Z,10.88
2022-10-01T03:43:00.950Z,10.75
2022-10-01T03:45:28.444Z,6.68
2022-10-01T03:47:55.935Z,7.85
2022-10-01T03:50:23.678Z,8.10
2022-10-01T03:52:51.317Z,5.47
2022-10-01T03:55:19.350Z,5.35
2022-10-01T03:57:47.251Z,6.93
2022-10-01T04:00:14.718Z,6.05
2022-10-01T04:02:42.109Z,8.48
2022-10-01T04:05:09.900Z,6.15
2022-10-01T04:07:37.386Z,6.90
2022-10-01T04:10:05.166Z,5.65
2022-10-01T04:12:32.986Z,6.95
2022-10-01T04:15:00.468Z,7.05
2022-10-01T04:17:27.862Z,6.87
2022-10-01T04:19:57.742Z,5.75
2022-10-01T04:22:25.234Z,5.75
2022-10-01T04:24:53.809Z,6.40
2022-10-01T04:27:21.582Z,4.95
2022-10-01T04:29:48.954Z,5.30
2022-10-01T04:32:21.628Z,4.00
2022-10-01T04:34:52.782Z,7.18
2022-10-01T04:37:21.618Z,7.35
2022-10-01T04:39:49.544Z,5.05
2022-10-01T04:42:17.012Z,4.75
2022-10-01T04:44:44.450Z,4.60
2022-10-01T04:47:12.157Z,5.40
2022-10-01T04:49:39.643Z,5.22
2022-10-01T04:52:07.011Z,5.30
2022-10-01T04:54:34.739Z,3.95
2022-10-01T04:57:02.137Z,6.53
2022-10-01T04:59:29.588Z,5.93
2022-10-01T05:01:57.690Z,5.45
2022-10-01T05:04:25.159Z,6.90
2022-10-01T05:06:52.567Z,7.72
2022-10-01T05:09:20.200Z,6.03
2022-10-01T05:11:52.083Z,4.78
2022-10-01T05:14:21.275Z,5.68
2022-10-01T05:16:48.730Z,5.03
2022-10-01T05:19:16.258Z,7.70
2022-10-01T05:21:43.970Z,6.25
2022-10-01T05:24:11.406Z,4.43
2022-10-01T05:26:38.996Z,8.65
2022-10-01T05:29:06.796Z,13.02
2022-10-01T05:31:34.914Z,6.43
2022-10-01T05:34:02.710Z,4.72
2022-10-01T05:36:30.371Z,4.03
2022-10-01T05:38:57.827Z,5.53
2022-10-01T05:41:25.272Z,7.82
2022-10-01T05:43:53.008Z,8.85
2022-10-01T05:46:20.511Z,5.82
2022-10-01T05:48:51.404Z,5.70
2022-10-01T05:51:19.304Z,4.43
2022-10-01T05:53:50.461Z,8.00
2022-10-01T05:56:18.067Z,6.85
2022-10-01T05:58:46.798Z,6.82
2022-10-01T06:01:14.308Z,9.25
2022-10-01T06:03:42.867Z,9.68
2022-10-01T06:06:10.636Z,9.90
2022-10-01T06:08:38.205Z,5.57
2022-10-01T06:11:06.114Z,4.62
2022-10-01T06:13:35.654Z,5.47
2022-10-01T06:16:03.123Z,5.03
2022-10-01T06:18:30.854Z,7.45
2022-10-01T06:20:59.745Z,7.00
2022-10-01T06:23:27.699Z,5.57
2022-10-01T06:25:55.379Z,4.47
2022-10-01T06:28:22.888Z,4.35
2022-10-01T06:30:50.344Z,5.35
2022-10-01T06:33:18.628Z,6.32
2022-10-01T06:35:48.797Z,10.10
2022-10-01T06:38:17.799Z,9.90
2022-10-01T06:40:54.275Z,6.97
2022-10-01T06:43:22.694Z,7.15
2022-10-01T06:45:50.494Z,8.07
2022-10-01T06:48:20.022Z,6.50
2022-10-01T06:50:49.293Z,4.90
2022-10-01T06:53:18.281Z,7.32
2022-10-01T06:55:46.329Z,7.00
2022-10-01T06:58:16.491Z,5.40
2022-10-01T07:00:44.820Z,8.90
2022-10-01T07:03:15.051Z,7.70
2022-10-01T07:05:42.501Z,10.30
2022-10-01T07:08:10.185Z,6.87
2022-10-01T07:10:38.136Z,7.22
2022-10-01T07:13:10.220Z,9.85
2022-10-01T07:15:38.578Z,9.13
2022-10-01T07:18:08.682Z,10.40
2022-10-01T07:20:39.678Z,6.05
2022-10-01T07:23:12.398Z,8.48
2022-10-01T07:25:41.189Z,8.43
2022-10-01T07:28:16.659Z,8.02
2022-10-01T07:30:57.303Z,6.53
2022-10-01T07:33:25.332Z,7.15
2022-10-01T07:35:52.833Z,5.95
2022-10-01T07:38:20.353Z,9.68
2022-10-01T07:40:52.682Z,7.57
2022-10-01T07:43:20.502Z,5.93
2022-10-01T07:45:49.998Z,6.87
2022-10-01T07:48:17.841Z,7.03
2022-10-01T07:50:45.777Z,9.07
2022-10-01T07:53:13.935Z,6.55
2022-10-01T07:55:41.490Z,8.45
2022-10-01T07:58:09.866Z,11.50
2022-10-01T08:00:38.411Z,8.15
2022-10-01T08:03:06.156Z,11.15
2022-10-01T08:05:35.826Z,7.78
2022-10-01T08:08:07.309Z,6.87
2022-10-01T08:10:36.846Z,7.78
2022-10-01T08:13:08.360Z,7.70
2022-10-01T08:15:36.323Z,9.48
2022-10-01T08:18:04.620Z,9.50
2022-10-01T08:20:32.303Z,7.90
2022-10-01T08:23:04.736Z,8.32
2022-10-01T08:25:32.494Z,7.82
2022-10-01T08:28:00.517Z,9.07
2022-10-01T08:30:29.027Z,11.15
2022-10-01T08:32:57.420Z,14.90
2022-10-01T08:35:26.008Z,18.30
2022-10-01T08:37:55.496Z,12.02
2022-10-01T08:40:23.904Z,9.05
2022-10-01T08:43:00.048Z,10.43
2022-10-01T08:45:34.760Z,10.35
2022-10-01T08:48:09.266Z,9.50
2022-10-01T08:50:44.787Z,12.45
2022-10-01T08:53:16.996Z,16.73
2022-10-01T08:55:54.786Z,12.93
2022-10-01T08:58:29.285Z,13.40
2022-10-01T09:00:56.754Z,14.18
2022-10-01T09:03:26.300Z,20.20
2022-10-01T09:05:59.764Z,14.27
2022-10-01T09:08:45.134Z,12.75
2022-10-01T09:11:15.013Z,10.20
2022-10-01T09:14:07.353Z,13.00
2022-10-01T09:16:38.723Z,10.98
2022-10-01T09:19:25.254Z,14.50
2022-10-01T09:22:06.304Z,15.70
2022-10-01T09:24:43.129Z,18.62
2022-10-01T09:27:14.854Z,19.42
2022-10-01T09:29:52.659Z,16.98
2022-10-01T09:32:23.486Z,14.52
2022-10-01T09:34:51.808Z,15.13
2022-10-01T09:37:24.031Z,14.60
2022-10-01T09:40:00.700Z,10.15
2022-10-01T09:42:29.338Z,15.07
2022-10-01T09:44:57.825Z,20.58
2022-10-01T09:47:28.209Z,15.80
2022-10-01T09:49:58.740Z,14.40
2022-10-01T09:52:37.951Z,12.45
2022-10-01T09:55:16.132Z,13.52
2022-10-01T09:57:51.993Z,20.55
2022-10-01T10:00:24.905Z,14.25
2022-10-01T10:02:54.554Z,21.45
2022-10-01T10:05:29.798Z,20.85
2022-10-01T10:08:10.336Z,12.10
2022-10-01T10:10:40.155Z,17.42
2022-10-01T10:13:14.704Z,16.67
2022-10-01T10:15:53.354Z,13.63
2022-10-01T10:18:31.010Z,16.83
2022-10-01T10:20:59.351Z,16.02
2022-10-01T10:23:29.009Z,9.82
2022-10-01T10:26:05.562Z,12.15
2022-10-01T10:28:43.797Z,9.82
2022-10-01T10:31:21.941Z,12.13
2022-10-01T10:33:58.359Z,11.45
2022-10-01T10:36:29.992Z,10.27
2022-10-01T10:38:58.492Z,10.05
2022-10-01T10:41:26.648Z,12.48
2022-10-01T10:44:06.210Z,8.30
2022-10-01T10:46:36.303Z,5.78
2022-10-01T10:49:31.326Z,7.15
2022-10-01T10:52:01.271Z,6.82
2022-10-01T10:54:34.071Z,7.32
2022-10-01T10:57:21.331Z,6.62
2022-10-01T11:00:16.095Z,7.72
2022-10-01T11:03:02.116Z,7.83
2022-10-01T11:05:32.820Z,8.07
2022-10-01T11:08:05.527Z,5.22
2022-10-01T11:10:57.320Z,6.90
2022-10-01T11:13:27.861Z,6.43
2022-10-01T11:16:14.305Z,4.35
2022-10-01T11:18:48.435Z,6.18
2022-10-01T11:21:15.832Z,5.40
2022-10-01T11:24:09.376Z,5.75
2022-10-01T11:26:58.365Z,5.55
2022-10-01T11:30:01.583Z,4.55
2022-10-01T11:32:39.353Z,3.72
2022-10-01T11:35:33.146Z,5.30
2022-10-01T11:38:05.206Z,4.97
2022-10-01T11:40:41.124Z,4.35
2022-10-01T11:43:30.438Z,5.32
2022-10-01T11:46:08.169Z,4.87
2022-10-01T11:48:48.550Z,3.37
2022-10-01T11:51:25.496Z,4.25
2022-10-01T11:53:58.339Z,3.67
2022-10-01T11:56:54.023Z,5.15
2022-10-01T11:59:29.581Z,5.20
2022-10-01T12:02:26.798Z,4.82
2022-10-01T12:05:05.004Z,5.05
2022-10-01T12:07:49.633Z,4.15
2022-10-01T12:10:39.342Z,4.72
2022-10-01T12:13:16.698Z,4.75
2022-10-01T12:15:53.709Z,4.22
2022-10-01T12:18:28.740Z,4.37
2022-10-01T12:20:58.739Z,3.37
2022-10-01T12:23:51.393Z,3.62
2022-10-01T12:26:32.359Z,4.40
2022-10-01T12:29:11.683Z,3.00
2022-10-01T12:31:55.688Z,4.65
2022-10-01T12:34:54.032Z,4.40
2022-10-01T12:37:28.072Z,4.35
2022-10-01T12:40:03.482Z,3.78
2022-10-01T12:42:37.170Z,3.65
2022-10-01T12:45:04.484Z,4.28
2022-10-01T12:48:03.389Z,3.72
2022-10-01T12:51:29.117Z,4.43
2022-10-01T12:54:41.772Z,4.53
2022-10-01T12:57:35.001Z,4.18
2022-10-01T13:00:18.269Z,5.65
2022-10-01T13:02:52.119Z,4.15
2022-10-01T13:05:26.008Z,4.35
2022-10-01T13:07:59.643Z,3.72
2022-10-01T13:10:36.252Z,3.70
2022-10-01T13:13:14.946Z,3.70
2022-10-01T13:15:47.740Z,4.03
2022-10-01T13:18:21.045Z,3.83
2022-10-01T13:20:57.221Z,3.55
2022-10-01T13:23:32.681Z,3.90
2022-10-01T13:26:36.605Z,2.47
2022-10-01T13:29:13.390Z,3.95
2022-10-01T13:31:58.666Z,3.85
2022-10-01T13:34:37.557Z,2.75
2022-10-01T13:37:30.038Z,3.20
2022-10-01T13:39:59.366Z,7.32
2022-10-01T13:42:30.257Z,4.68
2022-10-01T13:45:04.845Z,6.70
2022-10-01T13:47:33.984Z,7.65
2022-10-01T13:50:04.105Z,8.70
2022-10-01T13:52:32.806Z,10.63
2022-10-01T13:55:01.862Z,9.38
2022-10-01T13:57:32.472Z,8.90
2022-10-01T14:00:00.148Z,12.50
2022-10-01T14:02:36.712Z,13.52
2022-10-01T14:05:29.527Z,13.30
2022-10-01T14:08:10.928Z,13.30
2022-10-01T14:11:04.425Z,8.70
2022-10-01T14:13:54.328Z,10.50
2022-10-01T14:16:22.270Z,13.02
2022-10-01T14:18:49.977Z,10.13
2022-10-01T14:21:28.567Z,12.37
2022-10-01T14:24:20.883Z,9.57
2022-10-01T14:27:24.158Z,11.45
2022-10-01T14:30:11.023Z,12.90
2022-10-01T14:32:54.000Z,9.95
2022-10-01T14:35:31.684Z,12.27
2022-10-01T14:38:00.938Z,10.13
2022-10-01T14:40:39.652Z,10.48
2022-10-01T14:43:20.256Z,9.85
2022-10-01T14:45:51.897Z,12.93
2022-10-01T14:48:19.546Z,11.77
2022-10-01T14:50:49.523Z,8.57
2022-10-01T14:53:18.561Z,8.50
2022-10-01T14:55:47.619Z,10.85
2022-10-01T14:58:28.182Z,9.75
2022-10-01T15:00:56.884Z,9.85
2022-10-01T15:03:24.770Z,11.95
2022-10-01T15:06:03.294Z,10.23
2022-10-01T15:08:54.778Z,12.98
2022-10-01T15:11:29.837Z,14.45
2022-10-01T15:14:03.369Z,8.05
2022-10-01T15:16:33.220Z,10.13
2022-10-01T15:19:08.076Z,8.75
2022-10-01T15:21:37.257Z,10.43
2022-10-01T15:24:13.655Z,6.82
2022-10-01T15:26:41.174Z,4.43
2022-10-01T15:29:15.351Z,4.12
2022-10-01T15:31:43.988Z,4.10
2022-10-01T15:34:13.591Z,4.68
2022-10-01T15:36:41.295Z,3.60
2022-10-01T15:39:38.990Z,4.30
2022-10-01T15:42:23.494Z,4.50
2022-10-01T15:45:20.304Z,3.12
2022-10-01T15:47:51.741Z,3.35
2022-10-01T15:50:23.431Z,3.90
2022-10-01T15:53:13.807Z,3.45
2022-10-01T15:55:53.483Z,3.30
2022-10-01T15:58:57.480Z,3.67
2022-10-01T16:01:27.548Z,4.62
2022-10-01T16:04:12.782Z,3.92
2022-10-01T16:06:45.497Z,6.35
2022-10-01T16:09:17.612Z,5.97
2022-10-01T16:12:05.340Z,4.47
2022-10-01T16:14:43.956Z,3.80
2022-10-01T16:17:17.681Z,4.72
2022-10-01T16:19:47.104Z,5.12
2022-10-01T16:22:25.541Z,3.58
2022-10-01T16:25:06.982Z,3.42
2022-10-01T16:27:43.388Z,4.50
2022-10-01T16:30:19.399Z,4.03
2022-10-01T16:32:47.291Z,2.85
2022-10-01T16:35:29.753Z,4.32
2022-10-01T16:37:58.044Z,3.42
2022-10-01T16:40:28.581Z,3.72
2022-10-01T16:42:58.113Z,2.42
2022-10-01T16:45:28.534Z,2.92
2022-10-01T16:47:59.507Z,3.08
2022-10-01T16:50:27.340Z,2.83
2022-10-01T16:52:55.760Z,3.22
2022-10-01T16:55:32.352Z,3.37
2022-10-01T16:58:02.056Z,2.35
2022-10-01T17:00:29.904Z,1.90
2022-10-01T17:02:58.267Z,1.92
2022-10-01T17:05:31.770Z,1.67
2022-10-01T17:08:03.634Z,2.12
2022-10-01T17:10:35.869Z,2.25
2022-10-01T17:13:03.779Z,2.78
2022-10-01T17:15:32.219Z,2.60
2022-10-01T17:17:59.812Z,1.50
2022-10-01T17:20:29.145Z,1.95
2022-10-01T17:22:58.045Z,2.58
2022-10-01T17:25:32.373Z,2.28
2022-10-01T17:28:02.490Z,1.50
2022-10-01T17:30:30.803Z,2.47
2022-10-01T17:33:02.526Z,1.85
2022-10-01T17:35:30.320Z,2.62
2022-10-01T17:37:58.483Z,2.55
2022-10-01T17:40:25.966Z,2.28
2022-10-01T17:42:53.869Z,3.22
2022-10-01T17:45:21.348Z,4.05
2022-10-01T17:47:50.399Z,2.92
2022-10-01T17:50:18.838Z,3.78
2022-10-01T17:52:49.627Z,2.28
2022-10-01T17:55:19.759Z,8.50
2022-10-01T17:57:47.489Z,19.45
2022-10-01T18:00:15.083Z,4.72
2022-10-01T18:02:43.550Z,16.05
2022-10-01T18:05:14.519Z,4.00
2022-10-01T18:07:42.523Z,3.70
2022-10-01T18:10:12.599Z,1.85
2022-10-01T18:12:40.157Z,2.05
2022-10-01T18:15:08.093Z,2.90
2022-10-01T18:17:36.757Z,2.42
2022-10-01T18:20:08.004Z,2.65
2022-10-01T18:22:37.927Z,2.92
2022-10-01T18:25:06.152Z,2.30
2022-10-01T18:27:33.732Z,2.90
2022-10-01T18:30:01.576Z,2.37
2022-10-01T18:32:36.784Z,2.78
2022-10-01T18:35:18.826Z,2.95
2022-10-01T18:38:09.392Z,2.30
2022-10-01T18:40:42.959Z,18.80
2022-10-01T18:43:17.977Z,3.00
2022-10-01T18:45:59.957Z,3.28
2022-10-01T18:48:58.505Z,3.00
2022-10-01T18:51:52.195Z,3.15
2022-10-01T18:54:43.339Z,1.83
2022-10-01T18:57:20.685Z,1.85
2022-10-01T19:00:06.841Z,2.22
2022-10-01T19:03:00.834Z,1.98
2022-10-01T19:05:48.589Z,2.78
2022-10-01T19:08:49.520Z,3.12
2022-10-01T19:11:24.466Z,2.58
2022-10-01T19:14:11.106Z,3.53
2022-10-01T19:16:58.796Z,2.22
2022-10-01T19:19:52.828Z,3.40
2022-10-01T19:22:41.790Z,3.33
2022-10-01T19:25:32.276Z,2.83
2022-10-01T19:28:18.592Z,2.35
2022-10-01T19:30:51.863Z,1.50
2022-10-01T19:33:21.148Z,3.78
2022-10-01T19:35:52.001Z,6.93
2022-10-01T19:38:24.294Z,4.05
2022-10-01T19:40:55.572Z,41.30
2022-10-01T19:43:29.926Z,6.97
2022-10-01T19:46:07.338Z,2.72
2022-10-01T19:48:58.086Z,2.75
2022-10-01T19:51:32.281Z,2.92
2022-10-01T19:54:01.499Z,4.07
2022-10-01T19:56:31.660Z,1.80
2022-10-01T19:59:06.906Z,3.40
2022-10-01T20:01:38.985Z,3.42
2022-10-01T20:04:14.766Z,3.87
2022-10-01T20:09:42.426Z,3.17
2022-10-01T20:12:15.846Z,6.18
2022-10-01T20:15:09.954Z,3.78
2022-10-01T20:17:47.815Z,3.17
2022-10-01T20:20:24.047Z,2.75
2022-10-01T20:23:24.023Z,1.98
2022-10-01T20:25:57.839Z,2.42
2022-10-01T20:28:36.393Z,2.83
2022-10-01T20:31:10.802Z,2.87
2022-10-01T20:33:47.408Z,2.25
2022-10-01T20:36:42.731Z,1.85
2022-10-01T20:39:21.815Z,1.83
2022-10-01T20:41:53.264Z,2.25
2022-10-01T20:44:25.087Z,1.65
2022-10-01T20:47:01.123Z,2.42
2022-10-01T20:49:39.319Z,3.28
2022-10-01T20:52:29.702Z,3.08
2022-10-01T20:55:18.988Z,2.50
2022-10-01T20:57:51.912Z,2.40
2022-10-01T21:00:26.403Z,3.22
2022-10-01T21:03:12.666Z,2.78
2022-10-01T21:05:55.382Z,3.15
2022-10-01T21:08:27.139Z,2.45
2022-10-01T21:10:57.923Z,2.67
2022-10-01T21:13:31.525Z,2.40
2022-10-01T21:16:23.912Z,1.67
2022-10-01T21:19:01.697Z,2.12
2022-10-01T21:21:41.256Z,1.95
2022-10-01T21:24:47.761Z,1.83
2022-10-01T21:27:45.404Z,1.58
2022-10-01T21:30:21.921Z,1.05
2022-10-01T21:33:14.836Z,1.17
2022-10-01T21:36:19.476Z,1.73
2022-10-01T21:39:11.668Z,1.15
2022-10-01T21:41:50.530Z,1.98
2022-10-01T21:44:39.709Z,2.45
2022-10-01T21:47:32.303Z,1.25
2022-10-01T21:50:05.888Z,2.80
2022-10-01T21:52:39.558Z,2.62
2022-10-01T21:55:20.014Z,2.25
2022-10-01T21:58:18.818Z,2.22
2022-10-01T22:01:08.613Z,2.53
2022-10-01T22:03:45.067Z,2.20
2022-10-01T22:06:27.772Z,1.95
2022-10-01T22:09:27.757Z,2.22
2022-10-01T22:11:59.191Z,1.70
2022-10-01T22:14:27.476Z,1.87
2022-10-01T22:17:12.103Z,2.55
2022-10-01T22:19:44.745Z,2.05
2022-10-01T22:22:25.610Z,2.30
2022-10-01T22:24:54.476Z,1.33
2022-10-01T22:27:33.480Z,1.50
2022-10-01T22:30:09.184Z,2.35
2022-10-01T22:32:47.446Z,1.33
2022-10-01T22:35:25.487Z,2.00
2022-10-01T22:38:12.978Z,1.83
2022-10-01T22:40:48.708Z,2.00
2022-10-01T22:43:16.257Z,1.48
2022-10-01T22:46:15.161Z,1.70
2022-10-01T22:48:50.886Z,1.55
2022-10-01T22:51:48.443Z,1.15
2022-10-01T22:54:32.857Z,1.60
2022-10-01T22:57:19.003Z,1.05
2022-10-01T23:00:05.216Z,1.37
2022-10-01T23:02:39.599Z,1.48
2022-10-01T23:05:16.025Z,1.40
2022-10-01T23:07:57.747Z,1.52
2022-10-01T23:10:42.751Z,1.40
2022-10-01T23:13:23.030Z,1.40
2022-10-01T23:16:06.195Z,1.48
2022-10-01T23:18:57.121Z,0.95
2022-10-01T23:21:34.419Z,1.05
2022-10-01T23:24:14.354Z,1.05
2022-10-01T23:27:19.904Z,1.23
2022-10-01T23:29:53.638Z,1.23
2022-10-01T23:32:45.946Z,0.57
2022-10-01T23:35:21.772Z,1.02
2022-10-01T23:38:24.483Z,1.17
2022-10-01T23:40:52.269Z,0.90
2022-10-01T23:43:26.046Z,0.98
2022-10-01T23:45:57.440Z,0.90
2022-10-01T23:48:35.164Z,1.10
2022-10-01T23:51:27.060Z,1.75
2022-10-01T23:54:13.073Z,1.10
2022-10-01T23:56:58.983Z,1.17
2022-10-01T23:59:39.269Z,1.12
